sensor_id;sensor_type;location;lat;lon;timestamp;P1;durP1;ratioP1;P2;durP2;ratioP2
17488;SDS011;8861;52.644;4.734;2023-07-31T00:01:48;8.50;;;2.67;;
17488;SDS011;8861;52.644;4.734;2023-07-31T00:04:15;6.70;;;2.13;;
17488;SDS011;8861;52.644;4.734;2023-07-31T00:06:42;5.20;;;2.10;;
17488;SDS011;8861;52.644;4.734;2023-07-31T00:09:10;6.10;;;1.93;;
17488;SDS011;8861;52.644;4.734;2023-07-31T00:11:37;6.93;;;2.00;;
17488;SDS011;8861;52.644;4.734;2023-07-31T00:14:04;11.50;;;2.50;;
17488;SDS011;8861;52.644;4.734;2023-07-31T00:16:31;12.57;;;2.77;;
17488;SDS011;8861;52.644;4.734;2023-07-31T00:18:58;12.23;;;3.30;;
17488;SDS011;8861;52.644;4.734;2023-07-31T00:21:25;13.53;;;4.73;;
17488;SDS011;8861;52.644;4.734;2023-07-31T00:23:52;9.30;;;4.53;;
17488;SDS011;8861;52.644;4.734;2023-07-31T00:26:20;13.37;;;5.77;;
17488;SDS011;8861;52.644;4.734;2023-07-31T00:28:47;16.83;;;5.47;;
17488;SDS011;8861;52.644;4.734;2023-07-31T00:31:14;18.60;;;6.97;;
17488;SDS011;8861;52.644;4.734;2023-07-31T00:33:41;16.33;;;5.97;;
17488;SDS011;8861;52.644;4.734;2023-07-31T00:36:10;15.57;;;6.20;;
17488;SDS011;8861;52.644;4.734;2023-07-31T00:38:37;17.90;;;6.67;;
17488;SDS011;8861;52.644;4.734;2023-07-31T00:41:04;16.00;;;5.90;;
17488;SDS011;8861;52.644;4.734;2023-07-31T00:43:33;16.27;;;5.67;;
17488;SDS011;8861;52.644;4.734;2023-07-31T00:46:00;17.87;;;5.97;;
17488;SDS011;8861;52.644;4.734;2023-07-31T00:48:27;17.80;;;5.87;;
17488;SDS011;8861;52.644;4.734;2023-07-31T00:50:54;17.27;;;5.63;;
17488;SDS011;8861;52.644;4.734;2023-07-31T00:53:21;15.07;;;6.20;;
17488;SDS011;8861;52.644;4.734;2023-07-31T00:55:50;14.47;;;5.93;;
17488;SDS011;8861;52.644;4.734;2023-07-31T00:58:18;16.87;;;6.10;;
17488;SDS011;8861;52.644;4.734;2023-07-31T01:00:47;13.70;;;6.23;;
17488;SDS011;8861;52.644;4.734;2023-07-31T01:03:15;16.80;;;5.77;;
17488;SDS011;8861;52.644;4.734;2023-07-31T01:05:43;17.57;;;6.37;;
17488;SDS011;8861;52.644;4.734;2023-07-31T01:08:18;17.23;;;6.23;;
17488;SDS011;8861;52.644;4.734;2023-07-31T01:10:54;14.57;;;5.77;;
17488;SDS011;8861;52.644;4.734;2023-07-31T01:13:26;21.47;;;6.63;;
17488;SDS011;8861;52.644;4.734;2023-07-31T01:15:56;15.53;;;6.30;;
17488;SDS011;8861;52.644;4.734;2023-07-31T01:18:23;16.53;;;6.77;;
17488;SDS011;8861;52.644;4.734;2023-07-31T01:20:54;22.83;;;7.50;;
17488;SDS011;8861;52.644;4.734;2023-07-31T01:23:42;19.43;;;8.07;;
17488;SDS011;8861;52.644;4.734;2023-07-31T01:26:23;22.70;;;7.37;;
17488;SDS011;8861;52.644;4.734;2023-07-31T01:28:55;22.00;;;8.00;;
17488;SDS011;8861;52.644;4.734;2023-07-31T01:31:24;19.23;;;7.77;;
17488;SDS011;8861;52.644;4.734;2023-07-31T01:33:53;21.20;;;8.10;;
17488;SDS011;8861;52.644;4.734;2023-07-31T01:36:22;21.37;;;7.80;;
17488;SDS011;8861;52.644;4.734;2023-07-31T01:38:49;20.60;;;7.60;;
17488;SDS011;8861;52.644;4.734;2023-07-31T01:41:17;22.80;;;8.27;;
17488;SDS011;8861;52.644;4.734;2023-07-31T01:43:45;21.00;;;8.37;;
17488;SDS011;8861;52.644;4.734;2023-07-31T01:46:12;20.87;;;7.77;;
17488;SDS011;8861;52.644;4.734;2023-07-31T01:48:39;19.57;;;8.17;;
17488;SDS011;8861;52.644;4.734;2023-07-31T01:51:06;19.47;;;8.20;;
17488;SDS011;8861;52.644;4.734;2023-07-31T01:53:33;30.40;;;10.33;;
17488;SDS011;8861;52.644;4.734;2023-07-31T01:56:01;28.33;;;10.03;;
17488;SDS011;8861;52.644;4.734;2023-07-31T01:58:28;27.37;;;9.80;;
17488;SDS011;8861;52.644;4.734;2023-07-31T02:00:56;26.43;;;9.03;;
17488;SDS011;8861;52.644;4.734;2023-07-31T02:03:23;22.90;;;9.10;;
17488;SDS011;8861;52.644;4.734;2023-07-31T02:05:50;25.57;;;8.23;;
17488;SDS011;8861;52.644;4.734;2023-07-31T02:08:17;24.87;;;8.07;;
17488;SDS011;8861;52.644;4.734;2023-07-31T02:10:44;28.33;;;9.00;;
17488;SDS011;8861;52.644;4.734;2023-07-31T02:13:11;36.30;;;11.20;;
17488;SDS011;8861;52.644;4.734;2023-07-31T02:15:38;32.17;;;10.17;;
17488;SDS011;8861;52.644;4.734;2023-07-31T02:18:06;34.03;;;11.10;;
17488;SDS011;8861;52.644;4.734;2023-07-31T02:20:33;31.90;;;10.50;;
17488;SDS011;8861;52.644;4.734;2023-07-31T02:23:01;34.27;;;10.97;;
17488;SDS011;8861;52.644;4.734;2023-07-31T02:25:28;30.93;;;9.93;;
17488;SDS011;8861;52.644;4.734;2023-07-31T02:27:55;27.07;;;10.13;;
17488;SDS011;8861;52.644;4.734;2023-07-31T02:30:22;28.87;;;10.10;;
17488;SDS011;8861;52.644;4.734;2023-07-31T02:32:48;38.67;;;12.13;;
17488;SDS011;8861;52.644;4.734;2023-07-31T02:35:17;36.17;;;11.47;;
17488;SDS011;8861;52.644;4.734;2023-07-31T02:37:44;35.37;;;11.00;;
17488;SDS011;8861;52.644;4.734;2023-07-31T02:40:11;32.50;;;10.97;;
17488;SDS011;8861;52.644;4.734;2023-07-31T02:42:38;31.60;;;10.57;;
17488;SDS011;8861;52.644;4.734;2023-07-31T02:45:06;42.87;;;11.30;;
17488;SDS011;8861;52.644;4.734;2023-07-31T02:47:34;37.70;;;11.77;;
17488;SDS011;8861;52.644;4.734;2023-07-31T02:50:01;31.43;;;10.97;;
17488;SDS011;8861;52.644;4.734;2023-07-31T02:52:29;32.17;;;10.27;;
17488;SDS011;8861;52.644;4.734;2023-07-31T02:54:56;34.67;;;11.50;;
17488;SDS011;8861;52.644;4.734;2023-07-31T02:57:24;37.83;;;11.90;;
17488;SDS011;8861;52.644;4.734;2023-07-31T02:59:51;37.90;;;11.90;;
17488;SDS011;8861;52.644;4.734;2023-07-31T03:02:18;41.90;;;12.43;;
17488;SDS011;8861;52.644;4.734;2023-07-31T03:04:45;39.20;;;11.47;;
17488;SDS011;8861;52.644;4.734;2023-07-31T03:07:12;31.33;;;10.20;;
17488;SDS011;8861;52.644;4.734;2023-07-31T03:09:40;41.10;;;10.97;;
17488;SDS011;8861;52.644;4.734;2023-07-31T03:12:07;38.40;;;11.30;;
17488;SDS011;8861;52.644;4.734;2023-07-31T03:14:35;23.50;;;9.80;;
17488;SDS011;8861;52.644;4.734;2023-07-31T03:17:02;35.17;;;11.20;;
17488;SDS011;8861;52.644;4.734;2023-07-31T03:19:30;26.03;;;9.80;;
17488;SDS011;8861;52.644;4.734;2023-07-31T03:21:58;26.53;;;9.80;;
17488;SDS011;8861;52.644;4.734;2023-07-31T03:24:25;30.80;;;10.07;;
17488;SDS011;8861;52.644;4.734;2023-07-31T03:26:53;36.70;;;11.13;;
17488;SDS011;8861;52.644;4.734;2023-07-31T03:29:20;42.47;;;11.93;;
17488;SDS011;8861;52.644;4.734;2023-07-31T03:31:47;26.17;;;9.83;;
17488;SDS011;8861;52.644;4.734;2023-07-31T03:34:14;30.53;;;10.60;;
17488;SDS011;8861;52.644;4.734;2023-07-31T03:36:41;25.87;;;9.77;;
17488;SDS011;8861;52.644;4.734;2023-07-31T03:39:08;36.53;;;11.03;;
17488;SDS011;8861;52.644;4.734;2023-07-31T03:41:35;37.47;;;11.23;;
17488;SDS011;8861;52.644;4.734;2023-07-31T03:44:03;39.90;;;11.53;;
17488;SDS011;8861;52.644;4.734;2023-07-31T03:46:30;39.63;;;11.27;;
17488;SDS011;8861;52.644;4.734;2023-07-31T03:48:58;26.57;;;10.33;;
17488;SDS011;8861;52.644;4.734;2023-07-31T03:51:25;39.57;;;11.27;;
17488;SDS011;8861;52.644;4.734;2023-07-31T03:53:52;24.80;;;9.73;;
17488;SDS011;8861;52.644;4.734;2023-07-31T03:56:19;26.27;;;10.33;;
17488;SDS011;8861;52.644;4.734;2023-07-31T03:58:48;32.33;;;10.70;;
17488;SDS011;8861;52.644;4.734;2023-07-31T04:01:17;25.40;;;8.87;;
17488;SDS011;8861;52.644;4.734;2023-07-31T04:03:44;29.07;;;9.77;;
17488;SDS011;8861;52.644;4.734;2023-07-31T04:06:11;24.23;;;9.20;;
17488;SDS011;8861;52.644;4.734;2023-07-31T04:08:38;35.27;;;10.77;;
17488;SDS011;8861;52.644;4.734;2023-07-31T04:11:05;29.17;;;10.27;;
17488;SDS011;8861;52.644;4.734;2023-07-31T04:13:32;29.00;;;9.33;;
17488;SDS011;8861;52.644;4.734;2023-07-31T04:15:59;29.97;;;9.80;;
17488;SDS011;8861;52.644;4.734;2023-07-31T04:18:27;34.80;;;10.87;;
17488;SDS011;8861;52.644;4.734;2023-07-31T04:20:56;27.83;;;9.67;;
17488;SDS011;8861;52.644;4.734;2023-07-31T04:23:24;21.67;;;8.50;;
17488;SDS011;8861;52.644;4.734;2023-07-31T04:25:51;25.77;;;9.43;;
17488;SDS011;8861;52.644;4.734;2023-07-31T04:28:18;24.67;;;9.47;;
17488;SDS011;8861;52.644;4.734;2023-07-31T04:30:45;20.07;;;9.03;;
17488;SDS011;8861;52.644;4.734;2023-07-31T04:33:12;30.97;;;9.07;;
17488;SDS011;8861;52.644;4.734;2023-07-31T04:35:40;24.97;;;8.83;;
17488;SDS011;8861;52.644;4.734;2023-07-31T04:38:07;24.40;;;9.53;;
17488;SDS011;8861;52.644;4.734;2023-07-31T04:40:34;24.30;;;9.87;;
17488;SDS011;8861;52.644;4.734;2023-07-31T04:43:02;24.57;;;8.70;;
17488;SDS011;8861;52.644;4.734;2023-07-31T04:45:29;22.57;;;9.03;;
17488;SDS011;8861;52.644;4.734;2023-07-31T04:47:56;23.20;;;8.40;;
17488;SDS011;8861;52.644;4.734;2023-07-31T04:50:23;15.50;;;6.87;;
17488;SDS011;8861;52.644;4.734;2023-07-31T04:52:52;13.50;;;6.10;;
17488;SDS011;8861;52.644;4.734;2023-07-31T04:55:19;17.67;;;6.27;;
17488;SDS011;8861;52.644;4.734;2023-07-31T04:57:46;11.27;;;5.10;;
17488;SDS011;8861;52.644;4.734;2023-07-31T05:00:13;12.70;;;5.10;;
17488;SDS011;8861;52.644;4.734;2023-07-31T05:02:40;13.97;;;4.50;;
17488;SDS011;8861;52.644;4.734;2023-07-31T05:05:07;10.77;;;4.13;;
17488;SDS011;8861;52.644;4.734;2023-07-31T05:07:34;7.50;;;3.80;;
17488;SDS011;8861;52.644;4.734;2023-07-31T05:10:03;9.60;;;4.00;;
17488;SDS011;8861;52.644;4.734;2023-07-31T05:12:31;9.50;;;3.73;;
17488;SDS011;8861;52.644;4.734;2023-07-31T05:14:58;7.00;;;3.47;;
17488;SDS011;8861;52.644;4.734;2023-07-31T05:17:25;7.73;;;3.50;;
17488;SDS011;8861;52.644;4.734;2023-07-31T05:19:52;7.70;;;3.20;;
17488;SDS011;8861;52.644;4.734;2023-07-31T05:22:19;4.60;;;2.33;;
17488;SDS011;8861;52.644;4.734;2023-07-31T05:24:46;4.97;;;2.23;;
17488;SDS011;8861;52.644;4.734;2023-07-31T05:27:14;5.80;;;2.03;;
17488;SDS011;8861;52.644;4.734;2023-07-31T05:29:43;6.87;;;2.17;;
17488;SDS011;8861;52.644;4.734;2023-07-31T05:32:10;11.77;;;2.47;;
17488;SDS011;8861;52.644;4.734;2023-07-31T05:34:38;11.57;;;2.47;;
17488;SDS011;8861;52.644;4.734;2023-07-31T05:37:05;9.10;;;2.40;;
17488;SDS011;8861;52.644;4.734;2023-07-31T05:39:32;10.77;;;2.70;;
17488;SDS011;8861;52.644;4.734;2023-07-31T05:41:59;10.90;;;2.83;;
17488;SDS011;8861;52.644;4.734;2023-07-31T05:44:27;8.70;;;2.03;;
17488;SDS011;8861;52.644;4.734;2023-07-31T05:46:55;8.37;;;2.33;;
17488;SDS011;8861;52.644;4.734;2023-07-31T05:49:22;10.20;;;2.13;;
17488;SDS011;8861;52.644;4.734;2023-07-31T05:51:49;4.73;;;1.70;;
17488;SDS011;8861;52.644;4.734;2023-07-31T05:54:16;9.87;;;2.00;;
17488;SDS011;8861;52.644;4.734;2023-07-31T05:56:43;4.87;;;1.60;;
17488;SDS011;8861;52.644;4.734;2023-07-31T05:59:12;13.87;;;2.80;;
17488;SDS011;8861;52.644;4.734;2023-07-31T06:01:40;15.30;;;3.07;;
17488;SDS011;8861;52.644;4.734;2023-07-31T06:04:07;13.73;;;2.87;;
17488;SDS011;8861;52.644;4.734;2023-07-31T06:06:34;17.40;;;3.17;;
17488;SDS011;8861;52.644;4.734;2023-07-31T06:09:01;13.10;;;3.23;;
17488;SDS011;8861;52.644;4.734;2023-07-31T06:11:29;10.17;;;2.63;;
17488;SDS011;8861;52.644;4.734;2023-07-31T06:13:56;14.70;;;3.90;;
17488;SDS011;8861;52.644;4.734;2023-07-31T06:16:24;10.07;;;3.00;;
17488;SDS011;8861;52.644;4.734;2023-07-31T06:18:53;16.73;;;3.90;;
17488;SDS011;8861;52.644;4.734;2023-07-31T06:21:20;17.20;;;4.63;;
17488;SDS011;8861;52.644;4.734;2023-07-31T06:23:47;16.60;;;4.80;;
17488;SDS011;8861;52.644;4.734;2023-07-31T06:26:14;20.67;;;4.57;;
17488;SDS011;8861;52.644;4.734;2023-07-31T06:28:41;13.87;;;3.60;;
17488;SDS011;8861;52.644;4.734;2023-07-31T06:31:08;11.77;;;4.00;;
17488;SDS011;8861;52.644;4.734;2023-07-31T06:33:35;11.43;;;3.37;;
17488;SDS011;8861;52.644;4.734;2023-07-31T06:36:04;8.87;;;3.03;;
17488;SDS011;8861;52.644;4.734;2023-07-31T06:38:31;11.93;;;3.43;;
17488;SDS011;8861;52.644;4.734;2023-07-31T06:40:58;14.73;;;3.60;;
17488;SDS011;8861;52.644;4.734;2023-07-31T06:43:25;11.00;;;3.33;;
17488;SDS011;8861;52.644;4.734;2023-07-31T06:45:52;12.20;;;3.67;;
17488;SDS011;8861;52.644;4.734;2023-07-31T06:48:19;18.93;;;3.97;;
17488;SDS011;8861;52.644;4.734;2023-07-31T06:50:46;12.53;;;3.70;;
17488;SDS011;8861;52.644;4.734;2023-07-31T06:53:14;12.07;;;3.77;;
17488;SDS011;8861;52.644;4.734;2023-07-31T06:55:41;14.30;;;3.63;;
17488;SDS011;8861;52.644;4.734;2023-07-31T06:58:08;15.20;;;3.97;;
17488;SDS011;8861;52.644;4.734;2023-07-31T07:00:35;12.37;;;3.77;;
17488;SDS011;8861;52.644;4.734;2023-07-31T07:03:02;11.70;;;3.43;;
17488;SDS011;8861;52.644;4.734;2023-07-31T07:05:29;11.07;;;3.20;;
17488;SDS011;8861;52.644;4.734;2023-07-31T07:07:56;10.73;;;2.80;;
17488;SDS011;8861;52.644;4.734;2023-07-31T07:10:25;13.27;;;3.30;;
17488;SDS011;8861;52.644;4.734;2023-07-31T07:12:52;11.90;;;3.20;;
17488;SDS011;8861;52.644;4.734;2023-07-31T07:15:20;9.00;;;2.90;;
17488;SDS011;8861;52.644;4.734;2023-07-31T07:17:47;11.30;;;2.77;;
17488;SDS011;8861;52.644;4.734;2023-07-31T07:20:14;7.77;;;2.50;;
17488;SDS011;8861;52.644;4.734;2023-07-31T07:22:42;9.40;;;2.60;;
17488;SDS011;8861;52.644;4.734;2023-07-31T07:25:09;12.27;;;2.70;;
17488;SDS011;8861;52.644;4.734;2023-07-31T07:27:37;9.27;;;2.60;;
17488;SDS011;8861;52.644;4.734;2023-07-31T07:30:05;8.03;;;2.23;;
17488;SDS011;8861;52.644;4.734;2023-07-31T07:32:32;13.63;;;2.70;;
17488;SDS011;8861;52.644;4.734;2023-07-31T07:35:00;9.97;;;2.67;;
17488;SDS011;8861;52.644;4.734;2023-07-31T07:37:27;10.53;;;2.50;;
17488;SDS011;8861;52.644;4.734;2023-07-31T07:39:54;10.90;;;2.93;;
17488;SDS011;8861;52.644;4.734;2023-07-31T07:42:22;8.90;;;2.40;;
17488;SDS011;8861;52.644;4.734;2023-07-31T07:44:51;12.77;;;2.97;;
17488;SDS011;8861;52.644;4.734;2023-07-31T07:47:18;13.70;;;3.00;;
17488;SDS011;8861;52.644;4.734;2023-07-31T07:49:45;13.23;;;2.87;;
17488;SDS011;8861;52.644;4.734;2023-07-31T07:52:15;15.13;;;3.50;;
17488;SDS011;8861;52.644;4.734;2023-07-31T07:54:42;10.33;;;3.10;;
17488;SDS011;8861;52.644;4.734;2023-07-31T07:57:09;14.70;;;3.50;;
17488;SDS011;8861;52.644;4.734;2023-07-31T07:59:36;14.27;;;3.80;;
17488;SDS011;8861;52.644;4.734;2023-07-31T08:02:04;13.73;;;3.20;;
17488;SDS011;8861;52.644;4.734;2023-07-31T08:04:31;14.37;;;3.53;;
17488;SDS011;8861;52.644;4.734;2023-07-31T08:06:58;11.43;;;3.33;;
17488;SDS011;8861;52.644;4.734;2023-07-31T08:09:26;12.73;;;3.47;;
17488;SDS011;8861;52.644;4.734;2023-07-31T08:11:53;11.63;;;3.03;;
17488;SDS011;8861;52.644;4.734;2023-07-31T08:14:23;12.43;;;3.60;;
17488;SDS011;8861;52.644;4.734;2023-07-31T08:16:49;12.80;;;3.47;;
17488;SDS011;8861;52.644;4.734;2023-07-31T08:19:18;11.27;;;3.10;;
17488;SDS011;8861;52.644;4.734;2023-07-31T08:21:45;11.67;;;3.23;;
17488;SDS011;8861;52.644;4.734;2023-07-31T08:24:12;11.43;;;3.07;;
17488;SDS011;8861;52.644;4.734;2023-07-31T08:26:39;13.57;;;3.60;;
17488;SDS011;8861;52.644;4.734;2023-07-31T08:29:06;11.77;;;3.53;;
17488;SDS011;8861;52.644;4.734;2023-07-31T08:31:33;14.20;;;4.00;;
17488;SDS011;8861;52.644;4.734;2023-07-31T08:34:00;18.00;;;4.20;;
17488;SDS011;8861;52.644;4.734;2023-07-31T08:36:29;12.20;;;3.70;;
17488;SDS011;8861;52.644;4.734;2023-07-31T08:38:56;13.23;;;3.30;;
17488;SDS011;8861;52.644;4.734;2023-07-31T08:41:23;13.17;;;4.17;;
17488;SDS011;8861;52.644;4.734;2023-07-31T08:43:50;17.37;;;3.90;;
17488;SDS011;8861;52.644;4.734;2023-07-31T08:46:19;16.67;;;4.47;;
17488;SDS011;8861;52.644;4.734;2023-07-31T08:48:47;14.53;;;4.00;;
17488;SDS011;8861;52.644;4.734;2023-07-31T08:51:14;13.80;;;3.90;;
17488;SDS011;8861;52.644;4.734;2023-07-31T08:53:43;15.77;;;3.80;;
17488;SDS011;8861;52.644;4.734;2023-07-31T08:56:10;14.93;;;3.90;;
17488;SDS011;8861;52.644;4.734;2023-07-31T08:58:40;13.20;;;3.70;;
17488;SDS011;8861;52.644;4.734;2023-07-31T09:01:08;9.67;;;3.37;;
17488;SDS011;8861;52.644;4.734;2023-07-31T09:03:35;14.97;;;4.07;;
17488;SDS011;8861;52.644;4.734;2023-07-31T09:06:03;20.40;;;4.13;;
17488;SDS011;8861;52.644;4.734;2023-07-31T09:08:31;15.30;;;3.73;;
17488;SDS011;8861;52.644;4.734;2023-07-31T09:11:00;13.80;;;3.90;;
17488;SDS011;8861;52.644;4.734;2023-07-31T09:13:29;13.80;;;3.33;;
17488;SDS011;8861;52.644;4.734;2023-07-31T09:15:57;17.13;;;4.03;;
17488;SDS011;8861;52.644;4.734;2023-07-31T09:18:24;15.83;;;3.97;;
17488;SDS011;8861;52.644;4.734;2023-07-31T09:21:01;16.50;;;4.10;;
17488;SDS011;8861;52.644;4.734;2023-07-31T09:23:39;13.37;;;3.53;;
17488;SDS011;8861;52.644;4.734;2023-07-31T09:26:08;20.70;;;4.50;;
17488;SDS011;8861;52.644;4.734;2023-07-31T09:28:36;14.30;;;3.50;;
17488;SDS011;8861;52.644;4.734;2023-07-31T09:31:03;18.60;;;4.27;;
17488;SDS011;8861;52.644;4.734;2023-07-31T09:33:30;13.03;;;4.10;;
17488;SDS011;8861;52.644;4.734;2023-07-31T09:35:58;18.80;;;4.37;;
17488;SDS011;8861;52.644;4.734;2023-07-31T09:38:26;18.93;;;4.37;;
17488;SDS011;8861;52.644;4.734;2023-07-31T09:40:53;12.33;;;3.30;;
17488;SDS011;8861;52.644;4.734;2023-07-31T09:43:23;14.20;;;3.80;;
17488;SDS011;8861;52.644;4.734;2023-07-31T09:45:54;12.37;;;3.60;;
17488;SDS011;8861;52.644;4.734;2023-07-31T09:48:23;11.17;;;3.23;;
17488;SDS011;8861;52.644;4.734;2023-07-31T09:50:52;13.77;;;3.40;;
17488;SDS011;8861;52.644;4.734;2023-07-31T09:53:19;9.57;;;3.03;;
17488;SDS011;8861;52.644;4.734;2023-07-31T09:55:55;13.03;;;3.43;;
17488;SDS011;8861;52.644;4.734;2023-07-31T09:58:26;13.57;;;3.73;;
17488;SDS011;8861;52.644;4.734;2023-07-31T10:00:56;16.33;;;4.10;;
17488;SDS011;8861;52.644;4.734;2023-07-31T10:03:24;14.53;;;4.17;;
17488;SDS011;8861;52.644;4.734;2023-07-31T10:05:53;15.97;;;3.80;;
17488;SDS011;8861;52.644;4.734;2023-07-31T10:08:21;13.77;;;3.63;;
17488;SDS011;8861;52.644;4.734;2023-07-31T10:10:55;16.47;;;3.97;;
17488;SDS011;8861;52.644;4.734;2023-07-31T10:13:26;17.50;;;4.13;;
17488;SDS011;8861;52.644;4.734;2023-07-31T10:15:56;13.83;;;3.93;;
17488;SDS011;8861;52.644;4.734;2023-07-31T10:18:26;13.60;;;3.73;;
17488;SDS011;8861;52.644;4.734;2023-07-31T10:20:53;16.43;;;4.10;;
17488;SDS011;8861;52.644;4.734;2023-07-31T10:23:21;13.73;;;3.40;;
17488;SDS011;8861;52.644;4.734;2023-07-31T10:25:50;13.20;;;3.50;;
17488;SDS011;8861;52.644;4.734;2023-07-31T10:28:20;15.50;;;3.63;;
17488;SDS011;8861;52.644;4.734;2023-07-31T10:30:49;14.10;;;3.70;;
17488;SDS011;8861;52.644;4.734;2023-07-31T10:33:17;11.70;;;3.83;;
17488;SDS011;8861;52.644;4.734;2023-07-31T10:35:46;13.23;;;3.60;;
17488;SDS011;8861;52.644;4.734;2023-07-31T10:38:14;13.53;;;3.47;;
17488;SDS011;8861;52.644;4.734;2023-07-31T10:40:41;9.57;;;3.60;;
17488;SDS011;8861;52.644;4.734;2023-07-31T10:43:09;15.93;;;3.77;;
17488;SDS011;8861;52.644;4.734;2023-07-31T10:45:53;10.50;;;3.40;;
17488;SDS011;8861;52.644;4.734;2023-07-31T10:48:20;11.43;;;3.23;;
17488;SDS011;8861;52.644;4.734;2023-07-31T10:50:48;11.77;;;2.90;;
17488;SDS011;8861;52.644;4.734;2023-07-31T10:53:22;9.27;;;2.90;;
17488;SDS011;8861;52.644;4.734;2023-07-31T10:55:50;9.73;;;2.77;;
17488;SDS011;8861;52.644;4.734;2023-07-31T10:58:18;10.37;;;3.50;;
17488;SDS011;8861;52.644;4.734;2023-07-31T11:00:46;15.60;;;3.43;;
17488;SDS011;8861;52.644;4.734;2023-07-31T11:03:15;11.00;;;3.10;;
17488;SDS011;8861;52.644;4.734;2023-07-31T11:05:44;10.37;;;3.50;;
17488;SDS011;8861;52.644;4.734;2023-07-31T11:08:20;12.47;;;3.40;;
17488;SDS011;8861;52.644;4.734;2023-07-31T11:10:49;13.97;;;3.37;;
17488;SDS011;8861;52.644;4.734;2023-07-31T11:13:17;9.53;;;3.10;;
17488;SDS011;8861;52.644;4.734;2023-07-31T11:15:44;7.77;;;3.07;;
17488;SDS011;8861;52.644;4.734;2023-07-31T11:18:11;11.10;;;3.10;;
17488;SDS011;8861;52.644;4.734;2023-07-31T11:20:40;13.10;;;3.30;;
17488;SDS011;8861;52.644;4.734;2023-07-31T11:23:08;13.37;;;3.57;;
17488;SDS011;8861;52.644;4.734;2023-07-31T11:25:36;15.87;;;3.33;;
17488;SDS011;8861;52.644;4.734;2023-07-31T11:28:05;9.13;;;2.70;;
17488;SDS011;8861;52.644;4.734;2023-07-31T11:30:33;9.93;;;2.87;;
17488;SDS011;8861;52.644;4.734;2023-07-31T11:33:01;12.27;;;3.20;;
17488;SDS011;8861;52.644;4.734;2023-07-31T11:35:29;10.33;;;2.90;;
17488;SDS011;8861;52.644;4.734;2023-07-31T11:37:59;13.90;;;3.30;;
17488;SDS011;8861;52.644;4.734;2023-07-31T11:40:26;10.97;;;3.17;;
17488;SDS011;8861;52.644;4.734;2023-07-31T11:42:55;10.50;;;2.97;;
17488;SDS011;8861;52.644;4.734;2023-07-31T11:45:24;11.03;;;3.07;;
17488;SDS011;8861;52.644;4.734;2023-07-31T11:47:53;9.43;;;3.23;;
17488;SDS011;8861;52.644;4.734;2023-07-31T11:50:21;10.40;;;3.10;;
17488;SDS011;8861;52.644;4.734;2023-07-31T11:52:51;15.20;;;3.57;;
17488;SDS011;8861;52.644;4.734;2023-07-31T11:55:22;13.27;;;4.03;;
17488;SDS011;8861;52.644;4.734;2023-07-31T11:57:50;11.87;;;3.70;;
17488;SDS011;8861;52.644;4.734;2023-07-31T12:00:18;11.33;;;3.87;;
17488;SDS011;8861;52.644;4.734;2023-07-31T12:02:45;11.17;;;3.50;;
17488;SDS011;8861;52.644;4.734;2023-07-31T12:05:13;7.10;;;3.07;;
17488;SDS011;8861;52.644;4.734;2023-07-31T12:07:46;10.47;;;3.87;;
17488;SDS011;8861;52.644;4.734;2023-07-31T12:10:25;10.60;;;3.47;;
17488;SDS011;8861;52.644;4.734;2023-07-31T12:12:58;10.17;;;3.53;;
17488;SDS011;8861;52.644;4.734;2023-07-31T12:15:39;16.00;;;3.60;;
17488;SDS011;8861;52.644;4.734;2023-07-31T12:18:08;9.93;;;3.50;;
17488;SDS011;8861;52.644;4.734;2023-07-31T12:20:40;10.00;;;3.20;;
17488;SDS011;8861;52.644;4.734;2023-07-31T12:23:12;9.53;;;3.30;;
17488;SDS011;8861;52.644;4.734;2023-07-31T12:26:00;10.50;;;3.20;;
17488;SDS011;8861;52.644;4.734;2023-07-31T12:28:28;17.40;;;3.53;;
17488;SDS011;8861;52.644;4.734;2023-07-31T12:30:56;10.33;;;2.90;;
17488;SDS011;8861;52.644;4.734;2023-07-31T12:33:29;9.67;;;3.10;;
17488;SDS011;8861;52.644;4.734;2023-07-31T12:35:57;9.30;;;3.17;;
17488;SDS011;8861;52.644;4.734;2023-07-31T12:38:26;13.10;;;3.20;;
17488;SDS011;8861;52.644;4.734;2023-07-31T12:40:53;11.83;;;3.30;;
17488;SDS011;8861;52.644;4.734;2023-07-31T12:43:22;11.27;;;3.43;;
17488;SDS011;8861;52.644;4.734;2023-07-31T12:45:49;13.80;;;4.07;;
17488;SDS011;8861;52.644;4.734;2023-07-31T12:48:16;10.03;;;3.20;;
17488;SDS011;8861;52.644;4.734;2023-07-31T12:50:43;12.83;;;3.57;;
17488;SDS011;8861;52.644;4.734;2023-07-31T12:53:12;12.43;;;3.53;;
17488;SDS011;8861;52.644;4.734;2023-07-31T12:55:39;11.70;;;3.60;;
17488;SDS011;8861;52.644;4.734;2023-07-31T12:58:06;13.90;;;3.63;;
17488;SDS011;8861;52.644;4.734;2023-07-31T13:00:35;10.97;;;3.17;;
17488;SDS011;8861;52.644;4.734;2023-07-31T13:03:03;11.33;;;3.30;;
17488;SDS011;8861;52.644;4.734;2023-07-31T13:05:30;12.50;;;3.37;;
17488;SDS011;8861;52.644;4.734;2023-07-31T13:07:57;11.20;;;3.67;;
17488;SDS011;8861;52.644;4.734;2023-07-31T13:10:24;11.37;;;3.63;;
17488;SDS011;8861;52.644;4.734;2023-07-31T13:12:51;9.30;;;3.30;;
17488;SDS011;8861;52.644;4.734;2023-07-31T13:15:18;11.93;;;3.70;;
17488;SDS011;8861;52.644;4.734;2023-07-31T13:17:47;10.90;;;3.20;;
17488;SDS011;8861;52.644;4.734;2023-07-31T13:20:14;12.60;;;3.43;;
17488;SDS011;8861;52.644;4.734;2023-07-31T13:22:41;13.13;;;3.60;;
17488;SDS011;8861;52.644;4.734;2023-07-31T13:25:08;15.13;;;3.57;;
17488;SDS011;8861;52.644;4.734;2023-07-31T13:27:35;12.27;;;3.77;;
17488;SDS011;8861;52.644;4.734;2023-07-31T13:30:03;14.20;;;3.60;;
17488;SDS011;8861;52.644;4.734;2023-07-31T13:32:30;12.63;;;3.40;;
17488;SDS011;8861;52.644;4.734;2023-07-31T13:34:59;9.90;;;3.10;;
17488;SDS011;8861;52.644;4.734;2023-07-31T13:37:26;11.73;;;3.50;;
17488;SDS011;8861;52.644;4.734;2023-07-31T13:39:53;10.47;;;3.23;;
17488;SDS011;8861;52.644;4.734;2023-07-31T13:42:20;11.57;;;3.47;;
17488;SDS011;8861;52.644;4.734;2023-07-31T13:44:47;14.43;;;3.60;;
17488;SDS011;8861;52.644;4.734;2023-07-31T13:47:14;12.77;;;3.40;;
17488;SDS011;8861;52.644;4.734;2023-07-31T13:49:41;7.73;;;3.00;;
17488;SDS011;8861;52.644;4.734;2023-07-31T13:52:10;7.10;;;2.60;;
17488;SDS011;8861;52.644;4.734;2023-07-31T13:54:39;10.83;;;3.00;;
17488;SDS011;8861;52.644;4.734;2023-07-31T13:57:08;7.53;;;2.77;;
17488;SDS011;8861;52.644;4.734;2023-07-31T13:59:35;8.93;;;2.53;;
17488;SDS011;8861;52.644;4.734;2023-07-31T14:02:02;6.63;;;2.20;;
17488;SDS011;8861;52.644;4.734;2023-07-31T14:04:29;8.03;;;2.37;;
17488;SDS011;8861;52.644;4.734;2023-07-31T14:06:56;10.50;;;2.67;;
17488;SDS011;8861;52.644;4.734;2023-07-31T14:09:25;6.57;;;2.37;;
17488;SDS011;8861;52.644;4.734;2023-07-31T14:11:52;8.90;;;2.27;;
17488;SDS011;8861;52.644;4.734;2023-07-31T14:14:19;5.93;;;2.10;;
17488;SDS011;8861;52.644;4.734;2023-07-31T14:16:47;6.30;;;2.10;;
17488;SDS011;8861;52.644;4.734;2023-07-31T14:19:14;10.13;;;2.50;;
17488;SDS011;8861;52.644;4.734;2023-07-31T14:21:40;7.83;;;2.47;;
17488;SDS011;8861;52.644;4.734;2023-07-31T14:24:08;10.47;;;3.23;;
17488;SDS011;8861;52.644;4.734;2023-07-31T14:26:36;9.23;;;2.60;;
17488;SDS011;8861;52.644;4.734;2023-07-31T14:29:03;9.10;;;2.97;;
17488;SDS011;8861;52.644;4.734;2023-07-31T14:31:30;7.73;;;3.20;;
17488;SDS011;8861;52.644;4.734;2023-07-31T14:33:57;9.13;;;3.03;;
17488;SDS011;8861;52.644;4.734;2023-07-31T14:36:24;7.60;;;2.87;;
17488;SDS011;8861;52.644;4.734;2023-07-31T14:38:51;9.73;;;3.23;;
17488;SDS011;8861;52.644;4.734;2023-07-31T14:41:18;9.63;;;2.93;;
17488;SDS011;8861;52.644;4.734;2023-07-31T14:43:47;12.73;;;3.30;;
17488;SDS011;8861;52.644;4.734;2023-07-31T14:46:14;7.07;;;2.77;;
17488;SDS011;8861;52.644;4.734;2023-07-31T14:48:41;8.60;;;2.77;;
17488;SDS011;8861;52.644;4.734;2023-07-31T14:51:08;7.00;;;2.67;;
17488;SDS011;8861;52.644;4.734;2023-07-31T14:53:35;11.73;;;3.47;;